createdAt,value
2019-04-14T00:01:26.354Z,98974.08
2019-04-14T00:04:11.548Z,98978.20
2019-04-14T00:06:44.247Z,98975.08
2019-04-14T00:09:18.361Z,98979.14
2019-04-14T00:11:50.463Z,98982.30
2019-04-14T00:14:22.786Z,98977.17
2019-04-14T00:16:55.267Z,98980.75
2019-04-14T00:19:26.407Z,98979.42
2019-04-14T00:22:03.252Z,98977.23
2019-04-14T00:24:35.487Z,98972.50
2019-04-14T00:27:08.526Z,98972.53
2019-04-14T00:29:39.626Z,98975.98
2019-04-14T00:32:11.712Z,98976.62
2019-04-14T00:34:50.902Z,98976.15
2019-04-14T00:37:27.347Z,98976.15
2019-04-14T00:40:09.074Z,98975.44
2019-04-14T00:42:45.202Z,98978.28
2019-04-14T00:45:33.067Z,98979.84
2019-04-14T00:48:01.185Z,98981.78
2019-04-14T00:50:26.062Z,98982.78
2019-04-14T00:52:57.074Z,98982.42
2019-04-14T00:55:29.066Z,98984.99
2019-04-14T00:57:59.690Z,98984.73
2019-04-14T01:00:31.930Z,98991.95
2019-04-14T01:03:04.699Z,98981.66
2019-04-14T01:05:36.476Z,98984.99
2019-04-14T01:08:09.624Z,98989.23
2019-04-14T01:10:41.194Z,98992.19
2019-04-14T01:13:13.173Z,98993.97
2019-04-14T01:15:56.796Z,98993.73
2019-04-14T01:18:18.991Z,98989.90
2019-04-14T01:20:50.012Z,98991.80
2019-04-14T01:23:22.173Z,98989.41
2019-04-14T01:25:54.216Z,98984.14
2019-04-14T01:28:26.494Z,98981.89
2019-04-14T01:30:58.930Z,98989.25
2019-04-14T01:33:30.104Z,98982.32
2019-04-14T01:36:01.742Z,98983.28
2019-04-14T01:38:32.872Z,98981.03
2019-04-14T01:41:04.281Z,98983.40
2019-04-14T01:43:36.357Z,98980.88
2019-04-14T01:46:14.607Z,98978.56
2019-04-14T01:48:41.216Z,98975.77
2019-04-14T01:51:17.594Z,98980.02
2019-04-14T01:53:51.048Z,98981.95
2019-04-14T01:56:40.564Z,98977.56
2019-04-14T01:59:13.406Z,98976.25
2019-04-14T02:01:46.042Z,98979.30
2019-04-14T02:04:18.129Z,98981.66
2019-04-14T02:06:50.486Z,98977.73
2019-04-14T02:09:23.192Z,98980.03
2019-04-14T02:11:55.225Z,98982.63
2019-04-14T02:14:27.665Z,98980.13
2019-04-14T02:17:02.219Z,98981.77
2019-04-14T02:19:32.675Z,98985.39
2019-04-14T02:22:03.111Z,98986.69
2019-04-14T02:24:35.168Z,98986.20
2019-04-14T02:27:05.639Z,98983.66
2019-04-14T02:29:36.513Z,98982.58
2019-04-14T02:32:33.749Z,98982.30
2019-04-14T02:37:50.383Z,98981.17
2019-04-14T02:42:46.781Z,98983.86
2019-04-14T02:45:28.308Z,98979.00
2019-04-14T02:53:01.953Z,98977.95
2019-04-14T02:55:48.940Z,98981.23
2019-04-14T02:58:26.605Z,98981.00
2019-04-14T03:01:02.178Z,98979.81
2019-04-14T03:06:01.575Z,98984.70
2019-04-14T03:08:37.652Z,98984.73
2019-04-14T03:11:01.285Z,98985.22
2019-04-14T03:13:35.416Z,98985.36
2019-04-14T03:16:13.797Z,98986.03
2019-04-14T03:19:00.813Z,98981.14
2019-04-14T03:24:21.358Z,98981.62
2019-04-14T03:27:05.015Z,98987.77
2019-04-14T03:29:43.778Z,98986.33
2019-04-14T03:32:23.295Z,98984.39
2019-04-14T03:34:58.977Z,98984.66
2019-04-14T03:37:43.006Z,98987.23
2019-04-14T03:42:31.343Z,98994.48
2019-04-14T03:44:58.669Z,98992.70
2019-04-14T03:47:25.422Z,98998.59
2019-04-14T03:52:39.774Z,99001.56
2019-04-14T03:54:58.454Z,99000.53
2019-04-14T03:57:15.687Z,99005.02
2019-04-14T03:59:47.801Z,99010.68
2019-04-14T04:02:18.314Z,99007.58
2019-04-14T04:04:49.140Z,99008.35
2019-04-14T04:07:21.330Z,99011.36
2019-04-14T04:09:54.154Z,99007.49
2019-04-14T04:12:25.122Z,99003.89
2019-04-14T04:14:57.428Z,99001.15
2019-04-14T04:17:34.231Z,99004.50
2019-04-14T04:20:08.985Z,99009.13
2019-04-14T04:22:45.612Z,99001.41
2019-04-14T04:25:21.034Z,99003.31
2019-04-14T04:27:54.701Z,99006.88
2019-04-14T04:30:30.187Z,99016.04
2019-04-14T04:33:08.911Z,99019.67
2019-04-14T04:35:41.593Z,99024.95
2019-04-14T04:38:18.111Z,99022.45
2019-04-14T04:40:50.676Z,99026.80
2019-04-14T04:43:23.829Z,99020.03
2019-04-14T04:45:55.950Z,99024.80
2019-04-14T04:48:27.021Z,99035.07
2019-04-14T04:50:58.558Z,99027.93
2019-04-14T04:53:30.855Z,99035.47
2019-04-14T04:56:01.933Z,99034.69
2019-04-14T04:58:32.982Z,99031.38
2019-04-14T05:01:03.976Z,99026.43
2019-04-14T05:03:36.162Z,99030.04
2019-04-14T05:06:30.987Z,99025.14
2019-04-14T05:09:07.783Z,99025.14
2019-04-14T05:11:42.643Z,99032.31
2019-04-14T05:14:15.371Z,99036.42
2019-04-14T05:16:46.669Z,99036.42
2019-04-14T05:19:25.831Z,99036.00
2019-04-14T05:21:51.640Z,99037.25
2019-04-14T05:24:22.916Z,99039.28
2019-04-14T05:26:54.843Z,99041.05
2019-04-14T05:29:26.102Z,99047.78
2019-04-14T05:31:57.664Z,99039.84
2019-04-14T05:34:28.854Z,99045.12
2019-04-14T05:37:00.684Z,99043.75
2019-04-14T05:39:32.942Z,99044.16
2019-04-14T05:42:08.611Z,99049.52
2019-04-14T05:44:36.452Z,99046.26
2019-04-14T05:47:08.743Z,99045.94
2019-04-14T05:49:45.544Z,99053.94
2019-04-14T05:52:12.570Z,99053.45
2019-04-14T05:54:44.733Z,99050.88
2019-04-14T05:57:17.679Z,99050.97
2019-04-14T05:59:49.162Z,99053.59
2019-04-14T06:02:20.274Z,99049.69
2019-04-14T06:04:52.488Z,99049.93
2019-04-14T06:07:23.825Z,99046.98
2019-04-14T06:09:55.657Z,99047.49
2019-04-14T06:12:26.894Z,99050.31
2019-04-14T06:14:58.386Z,99055.81
2019-04-14T06:17:29.522Z,99056.83
2019-04-14T06:20:00.673Z,99053.30
2019-04-14T06:22:31.811Z,99057.54
2019-04-14T06:25:03.419Z,99056.91
2019-04-14T06:27:35.413Z,99059.64
2019-04-14T06:30:15.209Z,99057.10
2019-04-14T06:32:47.954Z,99057.16
2019-04-14T06:35:32.778Z,99058.05
2019-04-14T06:38:07.281Z,99069.42
2019-04-14T06:40:51.202Z,99071.56
2019-04-14T06:43:22.506Z,99069.77
2019-04-14T06:45:54.368Z,99078.22
2019-04-14T06:48:25.606Z,99078.37
2019-04-14T06:50:56.907Z,99071.53
2019-04-14T06:53:28.093Z,99074.20
2019-04-14T06:55:59.536Z,99071.03
2019-04-14T06:58:30.733Z,99071.58
2019-04-14T07:01:01.972Z,99077.58
2019-04-14T07:03:33.128Z,99071.66
2019-04-14T07:06:04.327Z,99067.85
2019-04-14T07:08:36.324Z,99064.25
2019-04-14T07:11:11.794Z,99067.02
2019-04-14T07:13:47.838Z,99071.42
2019-04-14T07:16:15.960Z,99065.55
2019-04-14T07:18:47.152Z,99071.28
2019-04-14T07:21:19.926Z,99069.97
2019-04-14T07:23:52.233Z,99071.44
2019-04-14T07:26:23.390Z,99071.53
2019-04-14T07:28:56.808Z,99067.28
2019-04-14T07:31:33.044Z,99073.26
2019-04-14T07:34:15.265Z,99072.77
2019-04-14T07:37:04.467Z,99071.48
2019-04-14T07:39:40.874Z,99076.84
2019-04-14T07:42:13.882Z,99064.20
2019-04-14T07:45:01.852Z,99062.70
2019-04-14T07:47:46.531Z,99073.19
2019-04-14T07:50:19.588Z,99069.07
2019-04-14T07:52:52.469Z,99071.34
2019-04-14T07:55:42.557Z,99066.47
2019-04-14T07:58:28.266Z,99062.56
2019-04-14T08:01:04.447Z,99064.23
2019-04-14T08:03:53.341Z,99060.59
2019-04-14T08:06:26.651Z,99054.66
2019-04-14T08:09:00.183Z,99057.57
2019-04-14T08:11:31.503Z,99057.35
2019-04-14T08:14:02.699Z,99051.95
2019-04-14T08:16:35.102Z,99061.95
2019-04-14T08:19:06.465Z,99067.02
2019-04-14T08:21:38.195Z,99065.66
2019-04-14T08:24:10.057Z,99066.41
2019-04-14T08:26:41.665Z,99059.20
2019-04-14T08:29:14.101Z,99067.98
2019-04-14T08:31:47.289Z,99065.03
2019-04-14T08:34:29.519Z,99052.67
2019-04-14T08:37:12.473Z,99041.02
2019-04-14T08:39:46.526Z,99047.19
2019-04-14T08:42:19.789Z,99047.86
2019-04-14T08:44:52.643Z,99053.72
2019-04-14T08:47:37.825Z,99053.12
2019-04-14T08:50:17.199Z,99049.42
2019-04-14T08:52:55.879Z,99055.72
2019-04-14T08:55:29.720Z,99041.17
2019-04-14T08:58:07.175Z,99041.73
2019-04-14T09:00:43.094Z,99032.17
2019-04-14T09:03:21.707Z,99034.84
2019-04-14T09:06:00.786Z,99029.48
2019-04-14T09:08:39.321Z,99035.92
2019-04-14T09:11:12.046Z,99032.66
2019-04-14T09:13:43.427Z,99039.80
2019-04-14T09:16:14.653Z,99031.13
2019-04-14T09:18:46.308Z,99026.58
2019-04-14T09:21:17.374Z,99026.58
2019-04-14T09:23:48.814Z,99035.11
2019-04-14T09:26:19.686Z,99027.95
2019-04-14T09:28:50.829Z,99022.42
2019-04-14T09:31:21.974Z,99015.91
2019-04-14T09:33:55.816Z,99011.14
2019-04-14T09:36:27.067Z,99013.69
2019-04-14T09:38:58.257Z,99004.52
2019-04-14T09:41:29.324Z,99017.20
2019-04-14T09:44:00.532Z,99012.02
2019-04-14T09:46:36.991Z,99012.41
2019-04-14T09:49:08.155Z,99006.25
2019-04-14T09:51:39.245Z,99010.99
2019-04-14T09:54:11.986Z,99015.97
2019-04-14T09:56:43.143Z,99018.42
2019-04-14T09:59:19.283Z,99018.47
2019-04-14T10:01:51.926Z,99018.92
2019-04-14T10:04:23.302Z,99013.41
2019-04-14T10:06:54.437Z,99011.02
2019-04-14T10:09:27.613Z,99009.05
2019-04-14T10:11:59.929Z,99009.61
2019-04-14T10:14:31.183Z,99016.52
2019-04-14T10:17:03.422Z,99016.52
2019-04-14T10:19:34.692Z,99009.59
2019-04-14T10:22:07.925Z,99012.45
2019-04-14T10:24:39.841Z,99017.40
2019-04-14T10:27:11.115Z,99009.16
2019-04-14T10:29:42.120Z,99009.01
2019-04-14T10:32:13.209Z,99008.59
2019-04-14T10:34:44.394Z,99006.38
2019-04-14T10:37:15.707Z,99000.31
2019-04-14T10:39:46.909Z,99000.28
2019-04-14T10:42:22.743Z,99006.22
2019-04-14T10:44:53.960Z,99003.13
2019-04-14T10:47:25.118Z,99000.73
2019-04-14T10:49:56.130Z,99006.14
2019-04-14T10:52:28.398Z,98997.59
2019-04-14T10:54:59.500Z,98993.04
2019-04-14T10:57:33.111Z,98993.45
2019-04-14T11:00:11.084Z,98991.24
2019-04-14T11:02:46.848Z,98988.46
2019-04-14T11:05:19.057Z,98983.08
2019-04-14T11:07:50.323Z,98981.69
2019-04-14T11:10:21.507Z,98980.16
2019-04-14T11:12:58.468Z,98978.86
2019-04-14T11:15:31.553Z,98979.03
2019-04-14T11:18:06.829Z,98983.06
2019-04-14T11:20:39.457Z,98992.48
2019-04-14T11:23:13.721Z,98981.98
2019-04-14T11:25:45.016Z,98984.14
2019-04-14T11:28:16.401Z,98963.62
2019-04-14T11:30:48.486Z,98979.76
2019-04-14T11:33:28.172Z,98978.03
2019-04-14T11:36:01.098Z,98977.72
2019-04-14T11:38:33.881Z,98984.45
2019-04-14T11:41:13.148Z,98983.34
2019-04-14T11:43:44.309Z,98968.83
2019-04-14T11:46:15.524Z,98980.00
2019-04-14T11:48:46.789Z,98980.05
2019-04-14T11:51:18.424Z,98977.20
2019-04-14T11:53:49.592Z,98976.80
2019-04-14T11:56:20.733Z,98972.65
2019-04-14T11:58:51.829Z,98983.50
2019-04-14T12:01:24.525Z,98979.70
2019-04-14T12:04:00.252Z,98980.68
2019-04-14T12:06:34.713Z,98980.41
2019-04-14T12:09:14.246Z,98981.88
2019-04-14T12:11:45.327Z,98985.66
2019-04-14T12:14:19.075Z,98980.83
2019-04-14T12:16:51.489Z,98962.72
2019-04-14T12:19:22.668Z,98966.50
2019-04-14T12:21:53.818Z,98966.88
2019-04-14T12:24:25.911Z,98957.32
2019-04-14T12:26:56.936Z,98963.20
2019-04-14T12:29:28.298Z,98964.03
2019-04-14T12:31:59.648Z,98955.66
2019-04-14T12:34:32.355Z,98958.33
2019-04-14T12:37:04.114Z,98958.33
2019-04-14T12:39:35.224Z,98969.88
2019-04-14T12:42:23.985Z,98975.21
2019-04-14T12:44:57.844Z,98969.42
2019-04-14T12:47:40.373Z,98963.77
2019-04-14T12:50:20.522Z,98954.36
2019-04-14T12:52:52.947Z,98950.49
2019-04-14T12:55:27.257Z,98954.53
2019-04-14T12:58:11.328Z,98956.95
2019-04-14T13:00:47.247Z,98956.69
2019-04-14T13:03:18.779Z,98961.52
2019-04-14T13:05:50.090Z,98962.66
2019-04-14T13:08:21.342Z,98960.20
2019-04-14T13:10:52.785Z,98964.03
2019-04-14T13:13:24.110Z,98967.39
2019-04-14T13:15:55.135Z,98970.16
2019-04-14T13:18:26.214Z,98956.75
2019-04-14T13:20:59.911Z,98958.28
2019-04-14T13:23:32.632Z,98956.03
2019-04-14T13:26:04.813Z,98954.89
2019-04-14T13:28:36.105Z,98954.81
2019-04-14T13:31:09.191Z,98950.35
2019-04-14T13:33:42.333Z,98955.97
2019-04-14T13:36:17.040Z,98953.03
2019-04-14T13:38:49.098Z,98966.30
2019-04-14T13:41:21.589Z,98969.23
2019-04-14T13:43:52.882Z,98964.32
2019-04-14T13:46:24.122Z,98962.86
2019-04-14T13:48:56.377Z,98961.08
2019-04-14T13:51:27.440Z,98960.00
2019-04-14T13:53:58.669Z,98959.77
2019-04-14T13:56:29.849Z,98954.16
2019-04-14T13:59:02.378Z,98964.05
2019-04-14T14:01:33.426Z,98960.96
2019-04-14T14:04:04.653Z,98962.50
2019-04-14T14:06:37.816Z,98961.27
2019-04-14T14:09:10.483Z,98962.91
2019-04-14T14:11:46.862Z,98963.27
2019-04-14T14:14:19.656Z,98952.69
2019-04-14T14:17:04.320Z,98957.25
2019-04-14T14:19:37.876Z,98942.83
2019-04-14T14:22:26.707Z,98956.88
2019-04-14T14:25:02.755Z,98960.78
2019-04-14T14:27:34.308Z,98972.78
2019-04-14T14:30:07.773Z,98965.78
2019-04-14T14:32:42.254Z,98970.92
2019-04-14T14:35:18.522Z,98973.20
2019-04-14T14:37:52.989Z,98972.05
2019-04-14T14:40:27.239Z,98962.61
2019-04-14T14:42:58.886Z,98973.05
2019-04-14T14:45:34.269Z,98960.77
2019-04-14T14:48:19.050Z,98975.41
2019-04-14T14:51:00.756Z,98977.13
2019-04-14T14:53:36.607Z,98972.73
2019-04-14T14:56:08.735Z,98965.31
2019-04-14T14:58:41.357Z,98967.78
2019-04-14T15:01:13.506Z,98963.03
2019-04-14T15:03:47.112Z,98968.27
2019-04-14T15:06:18.252Z,98971.98
2019-04-14T15:08:49.319Z,98971.31
2019-04-14T15:11:21.228Z,98971.87
2019-04-14T15:13:52.664Z,98973.67
2019-04-14T15:16:25.058Z,98977.17
2019-04-14T15:18:57.818Z,98980.17
2019-04-14T15:21:30.424Z,98986.28
2019-04-14T15:24:02.172Z,98986.09
2019-04-14T15:26:36.068Z,98987.84
2019-04-14T15:29:16.917Z,98972.78
2019-04-14T15:31:49.673Z,98980.20
2019-04-14T15:34:26.669Z,98980.62
2019-04-14T15:37:01.534Z,98981.64
2019-04-14T15:39:49.667Z,98978.36
2019-04-14T15:42:27.243Z,98985.09
2019-04-14T15:45:09.215Z,98987.93
2019-04-14T15:47:53.157Z,98992.32
2019-04-14T15:50:37.227Z,98988.72
2019-04-14T15:53:15.761Z,98986.67
2019-04-14T15:55:48.138Z,98998.03
2019-04-14T15:58:38.925Z,98995.79
2019-04-14T16:01:20.852Z,98996.56
2019-04-14T16:03:58.201Z,98999.45
2019-04-14T16:06:46.244Z,98998.34
2019-04-14T16:09:19.542Z,99002.52
2019-04-14T16:12:08.995Z,99004.03
2019-04-14T16:14:54.840Z,99001.03
2019-04-14T16:17:34.496Z,99008.91
2019-04-14T16:20:20.952Z,99010.34
2019-04-14T16:22:55.280Z,99008.27
2019-04-14T16:25:47.963Z,99006.14
2019-04-14T16:28:22.575Z,99021.88
2019-04-14T16:31:07.462Z,99025.91
2019-04-14T16:34:02.190Z,99030.16
2019-04-14T16:36:34.245Z,99031.48
2019-04-14T16:39:08.437Z,99037.19
2019-04-14T16:41:45.812Z,99039.81
2019-04-14T16:44:18.847Z,99038.42
2019-04-14T16:47:09.257Z,99046.13
2019-04-14T16:49:51.364Z,99043.83
2019-04-14T16:52:33.014Z,99045.66
2019-04-14T16:55:29.756Z,99045.23
2019-04-14T16:58:25.191Z,99053.16
2019-04-14T17:01:03.825Z,99047.77
2019-04-14T17:03:34.991Z,99056.98
2019-04-14T17:06:06.176Z,99057.70
2019-04-14T17:08:38.953Z,99064.08
2019-04-14T17:11:18.211Z,99065.21
2019-04-14T17:17:14.519Z,99074.34
2019-04-14T17:19:53.264Z,99071.81
2019-04-14T17:22:46.186Z,99068.80
2019-04-14T17:25:31.396Z,99067.39
2019-04-14T17:28:06.896Z,99073.40
2019-04-14T17:30:53.563Z,99065.69
2019-04-14T17:33:34.368Z,99069.42
2019-04-14T17:36:13.860Z,99078.48
2019-04-14T17:39:02.909Z,99086.70
2019-04-14T17:41:41.424Z,99078.19
2019-04-14T17:44:19.330Z,99086.63
2019-04-14T17:47:11.243Z,99085.92
2019-04-14T17:49:44.197Z,99097.44
2019-04-14T17:52:33.460Z,99090.81
2019-04-14T17:55:25.700Z,99093.84
2019-04-14T17:58:01.883Z,99097.05
2019-04-14T18:00:49.893Z,99100.69
2019-04-14T18:03:38.142Z,99100.59
2019-04-14T18:06:22.821Z,99097.91
2019-04-14T18:09:00.603Z,99105.84
2019-04-14T18:11:42.817Z,99114.80
2019-04-14T18:14:34.593Z,99109.66
2019-04-14T18:17:12.259Z,99111.45
2019-04-14T18:19:56.726Z,99112.17
2019-04-14T18:22:41.113Z,99118.34
2019-04-14T18:25:16.463Z,99122.74
2019-04-14T18:27:58.188Z,99124.84
2019-04-14T18:30:33.989Z,99125.44
2019-04-14T18:33:06.703Z,99132.22
2019-04-14T18:35:46.353Z,99123.66
2019-04-14T18:38:37.676Z,99130.03
2019-04-14T18:41:32.886Z,99123.25
2019-04-14T18:44:07.032Z,99132.30
2019-04-14T18:46:43.044Z,99138.03
2019-04-14T18:49:32.652Z,99135.01
2019-04-14T18:52:15.850Z,99139.98
2019-04-14T18:54:54.649Z,99139.52
2019-04-14T18:57:26.065Z,99140.63
2019-04-14T19:00:01.459Z,99143.89
2019-04-14T19:02:33.290Z,99146.72
2019-04-14T19:05:07.464Z,99138.02
2019-04-14T19:07:40.963Z,99132.62
2019-04-14T19:10:12.409Z,99130.61
2019-04-14T19:12:48.254Z,99130.32
2019-04-14T19:15:23.115Z,99133.70
2019-04-14T19:18:02.370Z,99132.40
2019-04-14T19:20:36.249Z,99133.79
2019-04-14T19:23:08.772Z,99132.52
2019-04-14T19:25:45.344Z,99131.23
2019-04-14T19:28:18.828Z,99132.72
2019-04-14T19:30:51.375Z,99131.42
2019-04-14T19:33:26.048Z,99128.25
2019-04-14T19:36:02.482Z,99130.52
2019-04-14T19:38:34.921Z,99129.44
2019-04-14T19:41:09.562Z,99138.09
2019-04-14T19:43:41.164Z,99140.20
2019-04-14T19:46:12.193Z,99135.13
2019-04-14T19:48:43.241Z,99143.98
2019-04-14T19:51:14.312Z,99142.39
2019-04-14T19:53:45.385Z,99144.88
2019-04-14T19:56:16.612Z,99138.19
2019-04-14T19:58:47.722Z,99136.41
2019-04-14T20:01:18.828Z,99142.19
2019-04-14T20:03:51.400Z,99142.39
2019-04-14T20:06:26.722Z,99142.09
2019-04-14T20:08:58.496Z,99154.52
2019-04-14T20:11:29.653Z,99157.69
2019-04-14T20:14:02.388Z,99155.63
2019-04-14T20:16:53.447Z,99152.23
2019-04-14T20:19:29.855Z,99152.94
2019-04-14T20:22:02.957Z,99148.56
2019-04-14T20:24:38.826Z,99160.52
2019-04-14T20:27:23.587Z,99167.38
2019-04-14T20:29:56.353Z,99168.38
2019-04-14T20:32:29.021Z,99168.84
2019-04-14T20:35:00.260Z,99166.92
2019-04-14T20:37:31.293Z,99170.02
2019-04-14T20:40:02.472Z,99176.51
2019-04-14T20:42:33.743Z,99168.94
2019-04-14T20:45:08.674Z,99167.11
2019-04-14T20:47:39.677Z,99170.75
2019-04-14T20:50:10.754Z,99176.31
2019-04-14T20:52:41.821Z,99176.80
2019-04-14T20:55:12.887Z,99178.34
2019-04-14T20:57:44.961Z,99175.63
2019-04-14T21:00:16.042Z,99178.38
2019-04-14T21:03:03.802Z,99178.38
2019-04-14T21:05:36.582Z,99175.91
2019-04-14T21:08:09.443Z,99179.26
2019-04-14T21:11:00.173Z,99179.26
2019-04-14T21:13:51.422Z,99185.25
2019-04-14T21:16:26.161Z,99185.25
2019-04-14T21:18:58.883Z,99175.67
2019-04-14T21:21:38.580Z,99180.34
2019-04-14T21:24:11.569Z,99189.55
2019-04-14T21:26:44.456Z,99187.30
2019-04-14T21:29:20.191Z,99189.55
2019-04-14T21:31:55.975Z,99192.94
2019-04-14T21:34:34.189Z,99188.00
2019-04-14T21:37:19.472Z,99188.00
2019-04-14T21:39:52.448Z,99191.98
2019-04-14T21:42:23.531Z,99196.38
2019-04-14T21:44:54.534Z,99196.58
2019-04-14T21:47:25.651Z,99197.94
2019-04-14T21:49:56.912Z,99191.03
2019-04-14T21:52:29.785Z,99196.02
2019-04-14T21:55:01.823Z,99201.37
2019-04-14T21:57:34.854Z,99195.11
2019-04-14T22:00:25.593Z,99196.08
2019-04-14T22:02:59.864Z,99201.33
2019-04-14T22:05:48.676Z,99196.53
2019-04-14T22:08:25.434Z,99200.61
2019-04-14T22:11:04.223Z,99207.03
2019-04-14T22:13:35.541Z,99201.70
2019-04-14T22:16:08.016Z,99206.33
2019-04-14T22:18:39.097Z,99203.64
2019-04-14T22:21:10.116Z,99202.96
2019-04-14T22:23:41.173Z,99208.91
2019-04-14T22:26:12.220Z,99203.95
2019-04-14T22:28:43.375Z,99202.72
2019-04-14T22:31:14.460Z,99209.84
2019-04-14T22:33:45.603Z,99213.74
2019-04-14T22:36:16.640Z,99212.30
2019-04-14T22:38:47.640Z,99210.41
2019-04-14T22:41:18.639Z,99213.91
2019-04-14T22:43:49.643Z,99220.67
2019-04-14T22:46:20.743Z,99218.63
2019-04-14T22:48:52.841Z,99221.45
2019-04-14T22:51:24.037Z,99225.33
2019-04-14T22:53:55.171Z,99223.10
2019-04-14T22:56:38.311Z,99217.56
2019-04-14T22:58:59.179Z,99214.51
2019-04-14T23:01:31.939Z,99221.00
2019-04-14T23:04:10.114Z,99217.69
2019-04-14T23:06:54.690Z,99221.36
2019-04-14T23:09:30.615Z,99214.05
2019-04-14T23:12:06.382Z,99215.09
2019-04-14T23:14:42.143Z,99217.14
2019-04-14T23:17:32.956Z,99218.02
2019-04-14T23:20:13.838Z,99212.13
2019-04-14T23:23:02.866Z,99211.77
2019-04-14T23:25:34.257Z,99213.70
2019-04-14T23:28:05.640Z,99214.86
2019-04-14T23:30:36.793Z,99207.38
2019-04-14T23:33:07.801Z,99212.66
2019-04-14T23:35:39.226Z,99209.33
2019-04-14T23:38:10.335Z,99206.77
2019-04-14T23:40:41.401Z,99210.47
2019-04-14T23:43:12.534Z,99207.27
2019-04-14T23:45:43.433Z,99208.42
2019-04-14T23:48:14.502Z,99213.95
2019-04-14T23:50:45.731Z,99215.48
2019-04-14T23:53:17.191Z,99210.09
2019-04-14T23:55:50.180Z,99218.06
2019-04-14T23:58:20.910Z,99212.92
